Buoy 13526

sailwx.info

Track history (hours):
 
Tides and Currents Weather Stations Pressure Air Temp Water Temp Dewpoint Dewpoint Depression Visibility Wind Speed Wind Dir Waves Ship Positions

Drifting buoy 13526

Last reported at 2014-Dec-19 23:56 UTC. Time now 2014-Dec-20 02:19 UTC.
Position N 26°43' W 041°09'.

Water temperature 23.7 ° C

Date/timePositionNaut miles runAvg speedWind from/ knotsBaromVisibWave heightAir tempDewpointWater temp
2014-Dec-19 23:56N 26°43' W 041°09'0 0.0 23.7
2014-Dec-19 23:44N 26°43' W 041°09'0 0.0 23.7
2014-Dec-19 23:01N 26°43' W 041°09'1 3.3 23.7
2014-Dec-19 22:50N 26°43' W 041°09'0 0.0 23.7
2014-Dec-19 22:24N 26°43' W 041°09'2 7.2 23.7
2014-Dec-19 22:09N 26°42' W 041°08'0 0.3 23.7
2014-Dec-19 20:35N 26°42' W 041°08'0 0.0 23.7
2014-Dec-19 20:09N 26°42' W 041°08'0 0.0 23.7
2014-Dec-19 20:06N 26°42' W 041°08'0 0.1 23.7
2014-Dec-19 19:35N 26°42' W 041°08'1 0.5 23.8
2014-Dec-19 18:23N 26°42' W 041°08'0 0.8
2014-Dec-19 17:51N 26°41' W 041°08'0 0.0 23.8
2014-Dec-19 17:48N 26°41' W 041°08'0 0.0 23.8
2014-Dec-19 16:08N 26°41' W 041°08'1 4.9 23.9
2014-Dec-19 15:56N 26°41' W 041°07'0 0.1 23.9
2014-Dec-19 14:23N 26°41' W 041°07'0 0.0 23.9
2014-Dec-19 14:16N 26°41' W 041°07'0 0.0
2014-Dec-19 12:40N 26°41' W 041°07'0 0.0 23.9
2014-Dec-19 11:45N 26°41' W 041°07'1 4.9 23.9
2014-Dec-19 11:38N 26°40' W 041°06'0 0.0 23.9
2014-Dec-19 10:51N 26°40' W 041°06'0 0.0
2014-Dec-19 10:03N 26°40' W 041°06'0 0.2 23.9
2014-Dec-19 08:56N 26°40' W 041°06'0 4.9 23.9
2014-Dec-19 08:50N 26°40' W 041°05'1 1.9 23.9
2014-Dec-19 08:27N 26°40' W 041°06'1 2.1 23.9
2014-Dec-19 08:08N 26°40' W 041°05'0 0.0 23.9
2014-Dec-19 07:15N 26°40' W 041°05'0 0.5 23.9
2014-Dec-19 06:44N 26°40' W 041°05'1 2.0 23.9
2014-Dec-19 06:26N 26°40' W 041°04'0 9.1 23.9
2014-Dec-19 06:24N 26°40' W 041°05'0 0.0 23.9
2014-Dec-19 06:20N 26°40' W 041°05'0 0.1 23.9
2014-Dec-19 04:44N 26°40' W 041°05'2 0.5 23.9
2014-Dec-19 01:04N 26°41' W 041°03'111.5 23.9
2014-Dec-19 00:58N 26°40' W 041°03'0 0.5 23.9
2014-Dec-19 00:16N 26°39' W 041°03'1 1.0 23.9
2014-Dec-18 23:18N 26°40' W 041°02'0 0.0 23.9
2014-Dec-18 22:53N 26°40' W 041°02'1 0.6 23.9
2014-Dec-18 20:34N 26°38' W 041°02'1 1.5 23.9
2014-Dec-18 19:46N 26°38' W 041°00'023.7 23.9
2014-Dec-18 19:45N 26°38' W 041°01'0 0.0 23.9
2014-Dec-18 19:29N 26°38' W 041°01'0 0.0 23.9
2014-Dec-18 18:54N 26°38' W 041°01'0 1.3 23.9
2014-Dec-18 18:43N 26°38' W 041°01'0 0.7 23.9
2014-Dec-18 18:05N 26°38' W 041°01'1 5.7 23.9
2014-Dec-18 17:56N 26°37' W 041°02'2 1.0 23.9
2014-Dec-18 16:19N 26°38' W 041°00'2 1.2 23.9
2014-Dec-18 14:35N 26°38' W 040°58'0 0.0 23.9
2014-Dec-18 13:47N 26°38' W 040°58'0 0.0 23.9
2014-Dec-18 12:55N 26°38' W 040°58'114.7 23.9
2014-Dec-18 12:52N 26°38' W 040°59'1 0.8 23.9
2014-Dec-18 12:09N 26°38' W 040°58'0 2.6 23.9
2014-Dec-18 11:59N 26°39' W 040°58'0 0.0 23.9
2014-Dec-18 11:19N 26°39' W 040°58'110.7 23.9
2014-Dec-18 11:13N 26°39' W 040°56'0 0.0 23.9
2014-Dec-18 09:18N 26°39' W 040°56'0 5.8 23.9
2014-Dec-18 09:13N 26°39' W 040°57'1 3.4 23.9
2014-Dec-18 08:56N 26°39' W 040°56'1 1.7 23.9
2014-Dec-18 08:21N 26°39' W 040°57'1 1.6 23.9
2014-Dec-18 07:36N 26°39' W 040°56'0 0.6 23.9
2014-Dec-18 07:18N 26°39' W 040°56'1 1.0 23.9
2014-Dec-18 06:38N 26°38' W 040°55'0 0.2 23.9
2014-Dec-18 04:55N 26°38' W 040°56'327.4 23.9
2014-Dec-18 04:49N 26°38' W 040°53'0 0.0 23.9
2014-Dec-18 03:14N 26°38' W 040°53'0 0.0 23.9
2014-Dec-18 01:22N 26°38' W 040°53'0 0.0 23.9
2014-Dec-18 01:16N 26°38' W 040°53'1 1.3 23.9
2014-Dec-18 00:36N 26°38' W 040°54'0 0.0 23.9
2014-Dec-17 23:44N 26°38' W 040°54'1 1.2 23.9
2014-Dec-17 22:50N 26°38' W 040°52'0 0.0 23.9
2014-Dec-17 22:01N 26°38' W 040°52'0 0.0 23.9
2014-Dec-17 21:58N 26°38' W 040°52'0 0.0 23.9
2014-Dec-17 21:48N 26°38' W 040°52'0 0.5 23.9
2014-Dec-17 20:54N 26°38' W 040°53'0 0.0 23.9
2014-Dec-17 20:00N 26°38' W 040°53'0 0.0 23.9
2014-Dec-17 19:56N 26°38' W 040°53'0 0.5 23.9
2014-Dec-17 19:19N 26°38' W 040°52'0 0.4 23.9
2014-Dec-17 18:16N 26°37' W 040°53'0 1.2 23.9
2014-Dec-17 18:10N 26°37' W 040°53'355.8 23.9
2014-Dec-17 18:07N 26°37' W 040°50'0 0.0 23.9
2014-Dec-17 16:29N 26°37' W 040°50'0 0.0 23.9
2014-Dec-17 16:18N 26°37' W 040°50'0 0.0 23.9
2014-Dec-17 14:47N 26°37' W 040°50'1 0.8 23.9
2014-Dec-17 14:05N 26°38' W 040°49'0 0.0 23.9
2014-Dec-17 13:17N 26°38' W 040°49'0 3.0 23.9
2014-Dec-17 13:09N 26°38' W 040°49'0 0.0 23.9
2014-Dec-17 12:22N 26°38' W 040°49'0 0.0 23.9
2014-Dec-17 11:39N 26°38' W 040°49'1 0.7 23.9
2014-Dec-17 10:45N 26°38' W 040°48'0 0.0 23.9
2014-Dec-17 09:44N 26°38' W 040°48'1 5.6 23.9
2014-Dec-17 09:38N 26°37' W 040°48'0 2.4 23.9
2014-Dec-17 09:27N 26°37' W 040°48'0 0.5 23.9
2014-Dec-17 08:33N 26°37' W 040°48'0 4.0 23.9
2014-Dec-17 08:27N 26°37' W 040°48'0 0.0 23.9
2014-Dec-17 08:00N 26°37' W 040°48'0 0.0 23.9
2014-Dec-17 07:49N 26°37' W 040°48'1 0.6 23.9
2014-Dec-17 06:52N 26°37' W 040°47'0 1.8 23.9
2014-Dec-17 06:48N 26°37' W 040°47'1 0.7 23.9
2014-Dec-17 05:06N 26°37' W 040°46'1 0.4 23.9
2014-Dec-17 03:27N 26°37' W 040°47'2 0.8 23.9
2014-Dec-17 00:55N 26°37' W 040°45'0 0.0 23.9
2014-Dec-17 00:04N 26°37' W 040°45'0 0.0 23.9
2014-Dec-16 23:17N 26°37' W 040°45'0 0.0 23.9
2014-Dec-16 23:09N 26°37' W 040°45'0 0.0 23.9
2014-Dec-16 22:18N 26°37' W 040°45'1 1.2 23.9
2014-Dec-16 21:22N 26°38' W 040°44'1 2.0 23.9
2014-Dec-16 20:40N 26°38' W 040°45'1 1.3 24.0
2014-Dec-16 20:08N 26°38' W 040°45'0 0.0 24.0
2014-Dec-16 18:28N 26°38' W 040°45'0 0.0 24.0
2014-Dec-16 18:24N 26°38' W 040°45'110.8 24.0
2014-Dec-16 18:18N 26°37' W 040°44'0 0.0 24.0
2014-Dec-16 18:01N 26°37' W 040°44'5 0.3 24.0
2014-Dec-15 23:35N 26°36' W 040°38'116.1 23.9
2014-Dec-15 23:32N 26°37' W 040°37'0 0.0 23.9
2014-Dec-15 22:48N 26°37' W 040°37'121.5 23.9
2014-Dec-15 22:45N 26°37' W 040°36'0 0.0 23.9
2014-Dec-15 22:40N 26°37' W 040°36'1 0.2 23.9
2014-Dec-15 20:19N 26°37' W 040°37'0 0.0 23.9
2014-Dec-15 20:08N 26°37' W 040°37'0 0.0 23.9
2014-Dec-15 20:04N 26°37' W 040°37'0 0.0 23.9
2014-Dec-15 19:30N 26°37' W 040°37'0 0.0 23.9
2014-Dec-15 19:24N 26°37' W 040°37'0 0.0 23.9
2014-Dec-15 18:38N 26°37' W 040°37'1 4.4 23.9
2014-Dec-15 18:27N 26°36' W 040°36'0 0.0 23.9
2014-Dec-15 16:54N 26°36' W 040°36'1 0.7 23.9
2014-Dec-15 15:09N 26°37' W 040°35'0 0.0 23.9
2014-Dec-15 14:00N 26°37' W 040°35'1 5.4 23.9
2014-Dec-15 13:51N 26°36' W 040°35'0 0.0
2014-Dec-15 12:24N 26°36' W 040°35'1 4.0 23.9
2014-Dec-15 12:16N 26°36' W 040°35'0 0.0 23.9
2014-Dec-15 11:26N 26°36' W 040°35'1 4.6 23.9
2014-Dec-15 11:19N 26°36' W 040°34'0 0.0 23.9
2014-Dec-15 10:26N 26°36' W 040°34'1 0.3 23.9
2014-Dec-15 08:52N 26°36' W 040°35'0 0.0 23.9
2014-Dec-15 08:48N 26°36' W 040°35'0 0.0 23.9
2014-Dec-15 07:17N 26°36' W 040°35'212.1 23.9
2014-Dec-15 07:09N 26°36' W 040°33'0 0.0 23.9
2014-Dec-15 07:05N 26°36' W 040°33'0 0.0 23.9
2014-Dec-15 05:28N 26°36' W 040°33'1 5.4 23.9
2014-Dec-15 05:22N 26°36' W 040°32'0 0.0 23.9
2014-Dec-15 03:49N 26°36' W 040°32'213.8 23.9
2014-Dec-15 03:42N 26°36' W 040°31'0 0.0 23.9
2014-Dec-15 01:32N 26°36' W 040°31'0 0.0
2014-Dec-15 00:46N 26°36' W 040°31'1 1.0 23.9
2014-Dec-14 23:56N 26°37' W 040°30'1 0.7 24.0
2014-Dec-14 23:06N 26°36' W 040°30'0 0.0
2014-Dec-14 23:00N 26°36' W 040°30'0 0.0 24.0
2014-Dec-14 21:42N 26°36' W 040°30'1 0.5 24.0
2014-Dec-14 20:33N 26°37' W 040°30'112.0 24.1
2014-Dec-14 20:30N 26°37' W 040°30'1 2.6 24.1
2014-Dec-14 20:02N 26°36' W 040°30'1 0.5 24.1
2014-Dec-14 18:52N 26°37' W 040°30'0 0.0 24.2
2014-Dec-14 18:50N 26°37' W 040°30'1 0.6 24.2
2014-Dec-14 17:05N 26°37' W 040°29'1 0.3 24.2
2014-Dec-14 15:22N 26°37' W 040°29'2 1.6 24.1
2014-Dec-14 14:21N 26°37' W 040°27'0 0.0 24.0
2014-Dec-14 12:44N 26°37' W 040°27'1 6.4 23.9
2014-Dec-14 12:39N 26°37' W 040°28'0 0.0 23.9
2014-Dec-14 11:52N 26°37' W 040°28'0 0.0 23.9
2014-Dec-14 11:49N 26°37' W 040°28'0 0.0 23.9
2014-Dec-14 11:46N 26°37' W 040°28'0 0.0 23.9
2014-Dec-14 11:43N 26°37' W 040°28'0 0.0 23.9
2014-Dec-14 11:01N 26°37' W 040°28'0 0.0 23.9
2014-Dec-14 09:23N 26°37' W 040°28'1 2.1 23.9
2014-Dec-14 09:08N 26°37' W 040°27'1 0.4 23.9
2014-Dec-14 07:43N 26°37' W 040°27'1 2.4 23.9
2014-Dec-14 07:23N 26°37' W 040°28'173.8
2014-Dec-14 07:22N 26°37' W 040°26'0 0.0 23.9
2014-Dec-14 05:48N 26°37' W 040°26'0 0.0 23.9
2014-Dec-14 05:45N 26°37' W 040°26'0 0.0 23.9
2014-Dec-14 05:39N 26°37' W 040°26'112.1 23.9
2014-Dec-14 05:35N 26°37' W 040°27'0 0.0 23.9
2014-Dec-14 04:00N 26°37' W 040°27'2 0.6 23.9
2014-Dec-14 01:06N 26°38' W 040°25'115.5 23.9
2014-Dec-14 01:02N 26°38' W 040°24'0 0.2 23.9
2014-Dec-14 00:17N 26°38' W 040°24'0 0.0 23.9
2014-Dec-13 23:27N 26°38' W 040°24'115.6 23.9
2014-Dec-13 23:24N 26°39' W 040°24'4 0.2 23.9
2014-Dec-12 23:48N 26°39' W 040°20'2 2.3 24.0
2014-Dec-12 22:56N 26°41' W 040°18'0 0.0 24.0
2014-Dec-12 22:06N 26°41' W 040°18'0 0.0 24.0
2014-Dec-12 22:02N 26°41' W 040°18'0 0.0 24.0
2014-Dec-12 21:21N 26°41' W 040°18'0 0.0 24.0
2014-Dec-12 20:50N 26°41' W 040°18'0 0.0 24.0
2014-Dec-12 19:41N 26°41' W 040°18'0 0.0 24.0
2014-Dec-12 19:18N 26°41' W 040°18'0 0.0 24.0
2014-Dec-12 19:14N 26°41' W 040°18'0 0.0 24.0
2014-Dec-12 19:09N 26°41' W 040°18'1 0.6 24.0
2014-Dec-12 17:59N 26°41' W 040°19'6 0.4 24.0
2014-Dec-12 04:21N 26°45' W 040°14'2 0.7 23.9
2014-Dec-12 00:56N 26°46' W 040°12'0 0.0 23.9
2014-Dec-12 00:08N 26°46' W 040°12'1 0.9 23.9
2014-Dec-11 23:21N 26°46' W 040°13'1 6.6 23.9
2014-Dec-11 23:15N 26°46' W 040°12'0 0.0 23.9
2014-Dec-11 22:27N 26°46' W 040°12'1 0.9 23.9
2014-Dec-11 21:37N 26°46' W 040°12'1 1.0 23.9
2014-Dec-11 20:08N 26°46' W 040°10'0 0.0 23.9
2014-Dec-11 20:03N 26°46' W 040°10'0 0.0 23.9
2014-Dec-11 19:49N 26°46' W 040°10'0 0.6 23.9
2014-Dec-11 19:26N 26°46' W 040°10'0 0.4 23.9
2014-Dec-11 18:26N 26°46' W 040°10'1 0.9 23.9
2014-Dec-11 17:44N 26°46' W 040°10'1 5.6 23.9
2014-Dec-11 17:36N 26°47' W 040°09'0 0.0 23.9
2014-Dec-11 15:56N 26°47' W 040°09'2 1.2 23.9
2014-Dec-11 14:29N 26°48' W 040°08'0 0.0 23.8
2014-Dec-11 13:43N 26°48' W 040°08'1 0.8 23.7
2014-Dec-11 12:45N 26°48' W 040°07'0 0.0 23.8
2014-Dec-11 12:40N 26°48' W 040°07'0 0.0
2014-Dec-11 12:03N 26°48' W 040°07'0 1.8 23.7
2014-Dec-11 11:55N 26°49' W 040°07'0 0.2 23.7
2014-Dec-11 11:09N 26°49' W 040°07'111.3 23.7
2014-Dec-11 11:05N 26°49' W 040°06'0 0.3 23.7
2014-Dec-11 09:41N 26°48' W 040°07'0 0.9 23.7
2014-Dec-11 09:18N 26°49' W 040°06'0 0.7 23.7
2014-Dec-11 08:47N 26°48' W 040°07'1 0.7 23.7
2014-Dec-11 07:59N 26°49' W 040°06'0 0.0 23.7
2014-Dec-11 07:38N 26°49' W 040°06'0 0.5 23.7
2014-Dec-11 07:09N 26°49' W 040°06'0 0.1 23.7
2014-Dec-11 06:15N 26°49' W 040°06'1 7.2 23.7
2014-Dec-11 06:09N 26°49' W 040°06'0 0.0 23.7
2014-Dec-11 04:32N 26°49' W 040°06'1 6.6 23.7
2014-Dec-11 04:26N 26°49' W 040°05'0 0.0 23.7
2014-Dec-11 01:16N 26°49' W 040°05'0 0.0 23.7
2014-Dec-11 00:25N 26°49' W 040°05'0 0.1 23.7
2014-Dec-10 22:49N 26°49' W 040°05'112.3 23.7
2014-Dec-10 22:44N 26°49' W 040°04'0 0.0 23.7
2014-Dec-10 22:07N 26°49' W 040°04'0 0.0 23.7
2014-Dec-10 20:31N 26°49' W 040°04'0 1.8 23.7
2014-Dec-10 20:19N 26°49' W 040°04'0 0.0 23.7
2014-Dec-10 19:37N 26°49' W 040°04'0 0.6 23.7
2014-Dec-10 18:51N 26°49' W 040°04'0 0.0 23.7
2014-Dec-10 17:53N 26°49' W 040°04'0 3.3 23.7
2014-Dec-10 17:47N 26°49' W 040°03'0 0.0 23.7
2014-Dec-10 16:07N 26°49' W 040°03'1 0.5 23.7
2014-Dec-10 14:24N 26°49' W 040°02'1 2.1 23.7
2014-Dec-10 14:04N 26°50' W 040°02'1 6.5 23.8
2014-Dec-10 13:55N 26°50' W 040°01'0 0.0
2014-Dec-10 12:28N 26°50' W 040°01'0 0.0 23.7
2014-Dec-10 12:23N 26°50' W 040°01'0 6.6 23.7
2014-Dec-10 12:19N 26°49' W 040°01'1 0.6 23.7
2014-Dec-10 11:25N 26°50' W 040°01'0 0.0 23.7
2014-Dec-10 09:48N 26°50' W 040°01'1 1.1 23.7
2014-Dec-10 09:16N 26°49' W 040°01'1 8.3 23.7
2014-Dec-10 09:10N 26°50' W 040°00'0 0.0 23.7
2014-Dec-10 08:10N 26°50' W 040°00'0 0.0 23.7
2014-Dec-10 08:09N 26°50' W 040°00'0 0.1 23.7
2014-Dec-10 06:26N 26°50' W 040°00'0 0.0 23.8
2014-Dec-10 06:18N 26°50' W 040°00'0 0.0 23.8
2014-Dec-10 04:45N 26°50' W 040°00'1 0.8 23.8
2014-Dec-10 03:02N 26°50' W 039°59'0 0.0 23.8
2014-Dec-10 00:50N 26°50' W 039°59'1 1.4 23.8
2014-Dec-10 00:03N 26°50' W 039°60'   23.8
Track history (hours):
 
Tides and Currents Weather Stations Pressure Air Temp Water Temp Dewpoint Dewpoint Depression Visibility Wind Speed Wind Dir Waves Ship Positions

Drifting buoy 13526

Last reported at 2014-Dec-19 23:56 UTC. Time now 2014-Dec-20 02:19 UTC.
Position N 26°43' W 041°09'.

Water temperature 23.7 ° C

Date/timePositionNaut miles runAvg speedWind from/ knotsBaromVisibWave heightAir tempDewpointWater temp
2014-Dec-19 23:56N 26°43' W 041°09'0 0.0 23.7
2014-Dec-19 23:44N 26°43' W 041°09'0 0.0 23.7
2014-Dec-19 23:01N 26°43' W 041°09'1 3.3 23.7
2014-Dec-19 22:50N 26°43' W 041°09'0 0.0 23.7
2014-Dec-19 22:24N 26°43' W 041°09'2 7.2 23.7
2014-Dec-19 22:09N 26°42' W 041°08'0 0.3 23.7
2014-Dec-19 20:35N 26°42' W 041°08'0 0.0 23.7
2014-Dec-19 20:09N 26°42' W 041°08'0 0.0 23.7
2014-Dec-19 20:06N 26°42' W 041°08'0 0.1 23.7
2014-Dec-19 19:35N 26°42' W 041°08'1 0.5 23.8
2014-Dec-19 18:23N 26°42' W 041°08'0 0.8
2014-Dec-19 17:51N 26°41' W 041°08'0 0.0 23.8
2014-Dec-19 17:48N 26°41' W 041°08'0 0.0 23.8
2014-Dec-19 16:08N 26°41' W 041°08'1 4.9 23.9
2014-Dec-19 15:56N 26°41' W 041°07'0 0.1 23.9
2014-Dec-19 14:23N 26°41' W 041°07'0 0.0 23.9
2014-Dec-19 14:16N 26°41' W 041°07'0 0.0
2014-Dec-19 12:40N 26°41' W 041°07'0 0.0 23.9
2014-Dec-19 11:45N 26°41' W 041°07'1 4.9 23.9
2014-Dec-19 11:38N 26°40' W 041°06'0 0.0 23.9
2014-Dec-19 10:51N 26°40' W 041°06'0 0.0
2014-Dec-19 10:03N 26°40' W 041°06'0 0.2 23.9
2014-Dec-19 08:56N 26°40' W 041°06'0 4.9 23.9
2014-Dec-19 08:50N 26°40' W 041°05'1 1.9 23.9
2014-Dec-19 08:27N 26°40' W 041°06'1 2.1 23.9
2014-Dec-19 08:08N 26°40' W 041°05'0 0.0 23.9
2014-Dec-19 07:15N 26°40' W 041°05'0 0.5 23.9
2014-Dec-19 06:44N 26°40' W 041°05'1 2.0 23.9
2014-Dec-19 06:26N 26°40' W 041°04'0 9.1 23.9
2014-Dec-19 06:24N 26°40' W 041°05'0 0.0 23.9
2014-Dec-19 06:20N 26°40' W 041°05'0 0.1 23.9
2014-Dec-19 04:44N 26°40' W 041°05'2 0.5 23.9
2014-Dec-19 01:04N 26°41' W 041°03'111.5 23.9
2014-Dec-19 00:58N 26°40' W 041°03'0 0.5 23.9
2014-Dec-19 00:16N 26°39' W 041°03'1 1.0 23.9
2014-Dec-18 23:18N 26°40' W 041°02'0 0.0 23.9
2014-Dec-18 22:53N 26°40' W 041°02'1 0.6 23.9
2014-Dec-18 20:34N 26°38' W 041°02'1 1.5 23.9
2014-Dec-18 19:46N 26°38' W 041°00'023.7 23.9
2014-Dec-18 19:45N 26°38' W 041°01'0 0.0 23.9
2014-Dec-18 19:29N 26°38' W 041°01'0 0.0 23.9
2014-Dec-18 18:54N 26°38' W 041°01'0 1.3 23.9
2014-Dec-18 18:43N 26°38' W 041°01'0 0.7 23.9
2014-Dec-18 18:05N 26°38' W 041°01'1 5.7 23.9
2014-Dec-18 17:56N 26°37' W 041°02'2 1.0 23.9
2014-Dec-18 16:19N 26°38' W 041°00'2 1.2 23.9
2014-Dec-18 14:35N 26°38' W 040°58'0 0.0 23.9
2014-Dec-18 13:47N 26°38' W 040°58'0 0.0 23.9
2014-Dec-18 12:55N 26°38' W 040°58'114.7 23.9
2014-Dec-18 12:52N 26°38' W 040°59'1 0.8 23.9
2014-Dec-18 12:09N 26°38' W 040°58'0 2.6 23.9
2014-Dec-18 11:59N 26°39' W 040°58'0 0.0 23.9
2014-Dec-18 11:19N 26°39' W 040°58'110.7 23.9
2014-Dec-18 11:13N 26°39' W 040°56'0 0.0 23.9
2014-Dec-18 09:18N 26°39' W 040°56'0 5.8 23.9
2014-Dec-18 09:13N 26°39' W 040°57'1 3.4 23.9
2014-Dec-18 08:56N 26°39' W 040°56'1 1.7 23.9
2014-Dec-18 08:21N 26°39' W 040°57'1 1.6 23.9
2014-Dec-18 07:36N 26°39' W 040°56'0 0.6 23.9
2014-Dec-18 07:18N 26°39' W 040°56'1 1.0 23.9
2014-Dec-18 06:38N 26°38' W 040°55'0 0.2 23.9
2014-Dec-18 04:55N 26°38' W 040°56'327.4 23.9
2014-Dec-18 04:49N 26°38' W 040°53'0 0.0 23.9
2014-Dec-18 03:14N 26°38' W 040°53'0 0.0 23.9
2014-Dec-18 01:22N 26°38' W 040°53'0 0.0 23.9
2014-Dec-18 01:16N 26°38' W 040°53'1 1.3 23.9
2014-Dec-18 00:36N 26°38' W 040°54'0 0.0 23.9
2014-Dec-17 23:44N 26°38' W 040°54'1 1.2 23.9
2014-Dec-17 22:50N 26°38' W 040°52'0 0.0 23.9
2014-Dec-17 22:01N 26°38' W 040°52'0 0.0 23.9
2014-Dec-17 21:58N 26°38' W 040°52'0 0.0 23.9
2014-Dec-17 21:48N 26°38' W 040°52'0 0.5 23.9
2014-Dec-17 20:54N 26°38' W 040°53'0 0.0 23.9
2014-Dec-17 20:00N 26°38' W 040°53'0 0.0 23.9
2014-Dec-17 19:56N 26°38' W 040°53'0 0.5 23.9
2014-Dec-17 19:19N 26°38' W 040°52'0 0.4 23.9
2014-Dec-17 18:16N 26°37' W 040°53'0 1.2 23.9
2014-Dec-17 18:10N 26°37' W 040°53'355.8 23.9
2014-Dec-17 18:07N 26°37' W 040°50'0 0.0 23.9
2014-Dec-17 16:29N 26°37' W 040°50'0 0.0 23.9
2014-Dec-17 16:18N 26°37' W 040°50'0 0.0 23.9
2014-Dec-17 14:47N 26°37' W 040°50'1 0.8 23.9
2014-Dec-17 14:05N 26°38' W 040°49'0 0.0 23.9
2014-Dec-17 13:17N 26°38' W 040°49'0 3.0 23.9
2014-Dec-17 13:09N 26°38' W 040°49'0 0.0 23.9
2014-Dec-17 12:22N 26°38' W 040°49'0 0.0 23.9
2014-Dec-17 11:39N 26°38' W 040°49'1 0.7 23.9
2014-Dec-17 10:45N 26°38' W 040°48'0 0.0 23.9
2014-Dec-17 09:44N 26°38' W 040°48'1 5.6 23.9
2014-Dec-17 09:38N 26°37' W 040°48'0 2.4 23.9
2014-Dec-17 09:27N 26°37' W 040°48'0 0.5 23.9
2014-Dec-17 08:33N 26°37' W 040°48'0 4.0 23.9
2014-Dec-17 08:27N 26°37' W 040°48'0 0.0 23.9
2014-Dec-17 08:00N 26°37' W 040°48'0 0.0 23.9
2014-Dec-17 07:49N 26°37' W 040°48'1 0.6 23.9
2014-Dec-17 06:52N 26°37' W 040°47'0 1.8 23.9
2014-Dec-17 06:48N 26°37' W 040°47'1 0.7 23.9
2014-Dec-17 05:06N 26°37' W 040°46'1 0.4 23.9
2014-Dec-17 03:27N 26°37' W 040°47'2 0.8 23.9
2014-Dec-17 00:55N 26°37' W 040°45'0 0.0 23.9
2014-Dec-17 00:04N 26°37' W 040°45'0 0.0 23.9
2014-Dec-16 23:17N 26°37' W 040°45'0 0.0 23.9
2014-Dec-16 23:09N 26°37' W 040°45'0 0.0 23.9
2014-Dec-16 22:18N 26°37' W 040°45'1 1.2 23.9
2014-Dec-16 21:22N 26°38' W 040°44'1 2.0 23.9
2014-Dec-16 20:40N 26°38' W 040°45'1 1.3 24.0
2014-Dec-16 20:08N 26°38' W 040°45'0 0.0 24.0
2014-Dec-16 18:28N 26°38' W 040°45'0 0.0 24.0
2014-Dec-16 18:24N 26°38' W 040°45'110.8 24.0
2014-Dec-16 18:18N 26°37' W 040°44'0 0.0 24.0
2014-Dec-16 18:01N 26°37' W 040°44'5 0.3 24.0
2014-Dec-15 23:35N 26°36' W 040°38'116.1 23.9
2014-Dec-15 23:32N 26°37' W 040°37'0 0.0 23.9
2014-Dec-15 22:48N 26°37' W 040°37'121.5 23.9
2014-Dec-15 22:45N 26°37' W 040°36'0 0.0 23.9
2014-Dec-15 22:40N 26°37' W 040°36'1 0.2 23.9
2014-Dec-15 20:19N 26°37' W 040°37'0 0.0 23.9
2014-Dec-15 20:08N 26°37' W 040°37'0 0.0 23.9
2014-Dec-15 20:04N 26°37' W 040°37'0 0.0 23.9
2014-Dec-15 19:30N 26°37' W 040°37'0 0.0 23.9
2014-Dec-15 19:24N 26°37' W 040°37'0 0.0 23.9
2014-Dec-15 18:38N 26°37' W 040°37'1 4.4 23.9
2014-Dec-15 18:27N 26°36' W 040°36'0 0.0 23.9
2014-Dec-15 16:54N 26°36' W 040°36'1 0.7 23.9
2014-Dec-15 15:09N 26°37' W 040°35'0 0.0 23.9
2014-Dec-15 14:00N 26°37' W 040°35'1 5.4 23.9
2014-Dec-15 13:51N 26°36' W 040°35'0 0.0
2014-Dec-15 12:24N 26°36' W 040°35'1 4.0 23.9
2014-Dec-15 12:16N 26°36' W 040°35'0 0.0 23.9
2014-Dec-15 11:26N 26°36' W 040°35'1 4.6 23.9
2014-Dec-15 11:19N 26°36' W 040°34'0 0.0 23.9
2014-Dec-15 10:26N 26°36' W 040°34'1 0.3 23.9
2014-Dec-15 08:52N 26°36' W 040°35'0 0.0 23.9
2014-Dec-15 08:48N 26°36' W 040°35'0 0.0 23.9
2014-Dec-15 07:17N 26°36' W 040°35'212.1 23.9
2014-Dec-15 07:09N 26°36' W 040°33'0 0.0 23.9
2014-Dec-15 07:05N 26°36' W 040°33'0 0.0 23.9
2014-Dec-15 05:28N 26°36' W 040°33'1 5.4 23.9
2014-Dec-15 05:22N 26°36' W 040°32'0 0.0 23.9
2014-Dec-15 03:49N 26°36' W 040°32'213.8 23.9
2014-Dec-15 03:42N 26°36' W 040°31'0 0.0 23.9
2014-Dec-15 01:32N 26°36' W 040°31'0 0.0
2014-Dec-15 00:46N 26°36' W 040°31'1 1.0 23.9
2014-Dec-14 23:56N 26°37' W 040°30'1 0.7 24.0
2014-Dec-14 23:06N 26°36' W 040°30'0 0.0
2014-Dec-14 23:00N 26°36' W 040°30'0 0.0 24.0
2014-Dec-14 21:42N 26°36' W 040°30'1 0.5 24.0
2014-Dec-14 20:33N 26°37' W 040°30'112.0 24.1
2014-Dec-14 20:30N 26°37' W 040°30'1 2.6 24.1
2014-Dec-14 20:02N 26°36' W 040°30'1 0.5 24.1
2014-Dec-14 18:52N 26°37' W 040°30'0 0.0 24.2
2014-Dec-14 18:50N 26°37' W 040°30'1 0.6 24.2
2014-Dec-14 17:05N 26°37' W 040°29'1 0.3 24.2
2014-Dec-14 15:22N 26°37' W 040°29'2 1.6 24.1
2014-Dec-14 14:21N 26°37' W 040°27'0 0.0 24.0
2014-Dec-14 12:44N 26°37' W 040°27'1 6.4 23.9
2014-Dec-14 12:39N 26°37' W 040°28'0 0.0 23.9
2014-Dec-14 11:52N 26°37' W 040°28'0 0.0 23.9
2014-Dec-14 11:49N 26°37' W 040°28'0 0.0 23.9
2014-Dec-14 11:46N 26°37' W 040°28'0 0.0 23.9
2014-Dec-14 11:43N 26°37' W 040°28'0 0.0 23.9
2014-Dec-14 11:01N 26°37' W 040°28'0 0.0 23.9
2014-Dec-14 09:23N 26°37' W 040°28'1 2.1 23.9
2014-Dec-14 09:08N 26°37' W 040°27'1 0.4 23.9
2014-Dec-14 07:43N 26°37' W 040°27'1 2.4 23.9
2014-Dec-14 07:23N 26°37' W 040°28'173.8
2014-Dec-14 07:22N 26°37' W 040°26'0 0.0 23.9
2014-Dec-14 05:48N 26°37' W 040°26'0 0.0 23.9
2014-Dec-14 05:45N 26°37' W 040°26'0 0.0 23.9
2014-Dec-14 05:39N 26°37' W 040°26'112.1 23.9
2014-Dec-14 05:35N 26°37' W 040°27'0 0.0 23.9
2014-Dec-14 04:00N 26°37' W 040°27'2 0.6 23.9
2014-Dec-14 01:06N 26°38' W 040°25'115.5 23.9
2014-Dec-14 01:02N 26°38' W 040°24'0 0.2 23.9
2014-Dec-14 00:17N 26°38' W 040°24'0 0.0 23.9
2014-Dec-13 23:27N 26°38' W 040°24'115.6 23.9
2014-Dec-13 23:24N 26°39' W 040°24'4 0.2 23.9
2014-Dec-12 23:48N 26°39' W 040°20'2 2.3 24.0
2014-Dec-12 22:56N 26°41' W 040°18'0 0.0 24.0
2014-Dec-12 22:06N 26°41' W 040°18'0 0.0 24.0
2014-Dec-12 22:02N 26°41' W 040°18'0 0.0 24.0
2014-Dec-12 21:21N 26°41' W 040°18'0 0.0 24.0
2014-Dec-12 20:50N 26°41' W 040°18'0 0.0 24.0
2014-Dec-12 19:41N 26°41' W 040°18'0 0.0 24.0
2014-Dec-12 19:18N 26°41' W 040°18'0 0.0 24.0
2014-Dec-12 19:14N 26°41' W 040°18'0 0.0 24.0
2014-Dec-12 19:09N 26°41' W 040°18'1 0.6 24.0
2014-Dec-12 17:59N 26°41' W 040°19'6 0.4 24.0
2014-Dec-12 04:21N 26°45' W 040°14'2 0.7 23.9
2014-Dec-12 00:56N 26°46' W 040°12'0 0.0 23.9
2014-Dec-12 00:08N 26°46' W 040°12'1 0.9 23.9
2014-Dec-11 23:21N 26°46' W 040°13'1 6.6 23.9
2014-Dec-11 23:15N 26°46' W 040°12'0 0.0 23.9
2014-Dec-11 22:27N 26°46' W 040°12'1 0.9 23.9
2014-Dec-11 21:37N 26°46' W 040°12'1 1.0 23.9
2014-Dec-11 20:08N 26°46' W 040°10'0 0.0 23.9
2014-Dec-11 20:03N 26°46' W 040°10'0 0.0 23.9
2014-Dec-11 19:49N 26°46' W 040°10'0 0.6 23.9
2014-Dec-11 19:26N 26°46' W 040°10'0 0.4 23.9
2014-Dec-11 18:26N 26°46' W 040°10'1 0.9 23.9
2014-Dec-11 17:44N 26°46' W 040°10'1 5.6 23.9
2014-Dec-11 17:36N 26°47' W 040°09'0 0.0 23.9
2014-Dec-11 15:56N 26°47' W 040°09'2 1.2 23.9
2014-Dec-11 14:29N 26°48' W 040°08'0 0.0 23.8
2014-Dec-11 13:43N 26°48' W 040°08'1 0.8 23.7
2014-Dec-11 12:45N 26°48' W 040°07'0 0.0 23.8
2014-Dec-11 12:40N 26°48' W 040°07'0 0.0
2014-Dec-11 12:03N 26°48' W 040°07'0 1.8 23.7
2014-Dec-11 11:55N 26°49' W 040°07'0 0.2 23.7
2014-Dec-11 11:09N 26°49' W 040°07'111.3 23.7
2014-Dec-11 11:05N 26°49' W 040°06'0 0.3 23.7
2014-Dec-11 09:41N 26°48' W 040°07'0 0.9 23.7
2014-Dec-11 09:18N 26°49' W 040°06'0 0.7 23.7
2014-Dec-11 08:47N 26°48' W 040°07'1 0.7 23.7
2014-Dec-11 07:59N 26°49' W 040°06'0 0.0 23.7
2014-Dec-11 07:38N 26°49' W 040°06'0 0.5 23.7
2014-Dec-11 07:09N 26°49' W 040°06'0 0.1 23.7
2014-Dec-11 06:15N 26°49' W 040°06'1 7.2 23.7
2014-Dec-11 06:09N 26°49' W 040°06'0 0.0 23.7
2014-Dec-11 04:32N 26°49' W 040°06'1 6.6 23.7
2014-Dec-11 04:26N 26°49' W 040°05'0 0.0 23.7
2014-Dec-11 01:16N 26°49' W 040°05'0 0.0 23.7
2014-Dec-11 00:25N 26°49' W 040°05'0 0.1 23.7
2014-Dec-10 22:49N 26°49' W 040°05'112.3 23.7
2014-Dec-10 22:44N 26°49' W 040°04'0 0.0 23.7
2014-Dec-10 22:07N 26°49' W 040°04'0 0.0 23.7
2014-Dec-10 20:31N 26°49' W 040°04'0 1.8 23.7
2014-Dec-10 20:19N 26°49' W 040°04'0 0.0 23.7
2014-Dec-10 19:37N 26°49' W 040°04'0 0.6 23.7
2014-Dec-10 18:51N 26°49' W 040°04'0 0.0 23.7
2014-Dec-10 17:53N 26°49' W 040°04'0 3.3 23.7
2014-Dec-10 17:47N 26°49' W 040°03'0 0.0 23.7
2014-Dec-10 16:07N 26°49' W 040°03'1 0.5 23.7
2014-Dec-10 14:24N 26°49' W 040°02'1 2.1 23.7
2014-Dec-10 14:04N 26°50' W 040°02'1 6.5 23.8
2014-Dec-10 13:55N 26°50' W 040°01'0 0.0
2014-Dec-10 12:28N 26°50' W 040°01'0 0.0 23.7
2014-Dec-10 12:23N 26°50' W 040°01'0 6.6 23.7
2014-Dec-10 12:19N 26°49' W 040°01'1 0.6 23.7
2014-Dec-10 11:25N 26°50' W 040°01'0 0.0 23.7
2014-Dec-10 09:48N 26°50' W 040°01'1 1.1 23.7
2014-Dec-10 09:16N 26°49' W 040°01'1 8.3 23.7
2014-Dec-10 09:10N 26°50' W 040°00'0 0.0 23.7
2014-Dec-10 08:10N 26°50' W 040°00'0 0.0 23.7
2014-Dec-10 08:09N 26°50' W 040°00'0 0.1 23.7
2014-Dec-10 06:26N 26°50' W 040°00'0 0.0 23.8
2014-Dec-10 06:18N 26°50' W 040°00'0 0.0 23.8
2014-Dec-10 04:45N 26°50' W 040°00'1 0.8 23.8
2014-Dec-10 03:02N 26°50' W 039°59'0 0.0 23.8
2014-Dec-10 00:50N 26°50' W 039°59'1 1.4 23.8
2014-Dec-10 00:03N 26°50' W 039°60'   23.8

Dump ship's entire track history